createdAt,value
2022-11-24T00:02:49.077Z,22.92
2022-11-24T00:07:54.349Z,16.67
2022-11-24T00:12:59.881Z,22.33
2022-11-24T00:18:04.280Z,28.23
2022-11-24T00:23:10.947Z,14.35
2022-11-24T00:28:16.914Z,17.45
2022-11-24T00:33:21.388Z,19.25
2022-11-24T00:38:26.528Z,9.00
2022-11-24T00:43:32.003Z,40.95
2022-11-24T00:48:37.347Z,13.02
2022-11-24T00:53:42.760Z,10.02
2022-11-24T00:58:48.548Z,9.20
2022-11-24T01:03:54.644Z,5.72
2022-11-24T01:08:59.194Z,5.93
2022-11-24T01:14:04.858Z,7.10
2022-11-24T01:19:09.926Z,7.72
2022-11-24T01:24:14.719Z,10.93
2022-11-24T01:29:20.237Z,19.77
2022-11-24T01:34:25.309Z,22.10
2022-11-24T01:39:31.991Z,14.43
2022-11-24T01:44:37.490Z,10.93
2022-11-24T01:49:46.131Z,7.97
2022-11-24T01:54:54.739Z,6.17
2022-11-24T02:00:07.558Z,8.80
2022-11-24T02:05:25.516Z,5.57
2022-11-24T02:10:31.019Z,9.15
2022-11-24T02:15:38.188Z,7.10
2022-11-24T02:20:42.350Z,5.90
2022-11-24T02:25:57.706Z,5.07
2022-11-24T02:31:04.210Z,7.45
2022-11-24T02:36:09.182Z,7.50
2022-11-24T02:41:20.192Z,6.63
2022-11-24T02:46:25.945Z,11.27
2022-11-24T02:51:30.244Z,18.38
2022-11-24T02:56:34.541Z,15.10
2022-11-24T03:01:40.079Z,7.32
2022-11-24T03:06:44.505Z,6.65
2022-11-24T03:11:50.128Z,13.00
2022-11-24T03:16:55.720Z,10.80
2022-11-24T03:22:01.329Z,15.30
2022-11-24T03:27:05.660Z,14.18
2022-11-24T03:32:12.644Z,9.55
2022-11-24T03:37:18.092Z,7.97
2022-11-24T03:42:22.279Z,4.60
2022-11-24T03:47:27.935Z,6.13
2022-11-24T03:52:32.687Z,16.75
2022-11-24T03:57:36.725Z,17.70
2022-11-24T04:02:42.823Z,17.33
2022-11-24T04:07:47.307Z,16.45
2022-11-24T04:12:51.661Z,22.45
2022-11-24T04:17:58.045Z,18.58
2022-11-24T04:23:02.613Z,30.90
2022-11-24T04:28:06.947Z,35.85
2022-11-24T04:33:14.680Z,14.50
2022-11-24T04:39:22.907Z,5.90
2022-11-24T04:43:42.674Z,12.13
2022-11-24T04:48:48.280Z,12.95
2022-11-24T04:53:52.982Z,8.57
2022-11-24T04:58:57.111Z,23.55
2022-11-24T05:04:02.500Z,21.63
2022-11-24T05:09:07.676Z,11.52
2022-11-24T05:14:12.046Z,23.73
2022-11-24T05:19:18.590Z,40.50
2022-11-24T05:24:22.755Z,79.00
2022-11-24T05:29:27.522Z,115.63
2022-11-24T05:34:33.890Z,60.63
2022-11-24T05:39:38.699Z,75.30
2022-11-24T05:44:42.912Z,58.22
2022-11-24T05:49:48.776Z,81.50
2022-11-24T05:54:52.976Z,74.78
2022-11-24T05:59:58.845Z,59.95
2022-11-24T06:05:05.130Z,51.65
2022-11-24T06:10:09.811Z,37.58
2022-11-24T06:15:14.153Z,42.65
2022-11-24T06:20:19.926Z,69.82
2022-11-24T06:25:23.957Z,82.68
2022-11-24T06:30:28.030Z,67.63
2022-11-24T06:35:33.407Z,53.55
2022-11-24T06:40:38.668Z,44.03
2022-11-24T06:45:42.695Z,45.67
2022-11-24T06:50:50.337Z,52.78
2022-11-24T06:55:55.059Z,34.78
2022-11-24T07:01:00.211Z,30.90
2022-11-24T07:06:06.369Z,27.73
2022-11-24T07:11:12.934Z,28.48
2022-11-24T07:16:18.708Z,35.47
2022-11-24T07:21:29.518Z,43.17
2022-11-24T07:26:37.389Z,38.75
2022-11-24T07:31:42.737Z,52.70
2022-11-24T07:36:48.463Z,75.82
2022-11-24T07:41:52.892Z,52.17
2022-11-24T07:46:57.024Z,54.80
2022-11-24T07:52:02.397Z,44.97
2022-11-24T07:57:07.745Z,33.40
2022-11-24T08:02:15.420Z,29.42
2022-11-24T08:07:21.131Z,31.33
2022-11-24T08:12:28.184Z,25.83
2022-11-24T08:17:32.231Z,24.67
2022-11-24T08:22:39.473Z,12.48
2022-11-24T08:27:44.095Z,9.38
2022-11-24T08:32:48.403Z,6.55
2022-11-24T08:37:53.889Z,4.07
2022-11-24T08:42:59.411Z,7.82
2022-11-24T08:48:03.700Z,5.13
2022-11-24T08:53:09.242Z,4.63
2022-11-24T08:58:13.448Z,4.70
2022-11-24T09:03:18.141Z,4.10
2022-11-24T09:08:24.777Z,5.82
2022-11-24T09:13:29.033Z,3.45
2022-11-24T09:18:34.445Z,5.70
2022-11-24T09:23:41.237Z,13.15
2022-11-24T09:28:47.263Z,11.65
2022-11-24T09:33:51.828Z,15.15
2022-11-24T09:38:59.274Z,13.73
2022-11-24T09:44:11.081Z,8.82
2022-11-24T09:49:24.743Z,6.95
2022-11-24T09:54:32.845Z,8.77
2022-11-24T09:59:37.520Z,13.17
2022-11-24T10:05:09.675Z,8.30
2022-11-24T10:10:24.196Z,9.57
2022-11-24T10:15:39.385Z,9.85
2022-11-24T10:20:53.795Z,18.48
2022-11-24T10:26:01.121Z,10.57
2022-11-24T10:31:18.996Z,8.60
2022-11-24T10:36:31.778Z,13.13
2022-11-24T10:41:46.435Z,15.40
2022-11-24T10:46:52.117Z,10.95
2022-11-24T10:52:07.186Z,16.40
2022-11-24T10:57:29.009Z,18.40
2022-11-24T11:02:38.518Z,19.83
2022-11-24T11:07:42.525Z,22.58
2022-11-24T11:12:48.061Z,17.30
2022-11-24T11:17:57.388Z,26.95
2022-11-24T11:23:04.802Z,36.27
2022-11-24T11:28:24.172Z,25.88
2022-11-24T11:38:54.401Z,13.98
2022-11-24T11:44:08.955Z,13.63
2022-11-24T11:49:13.951Z,7.63
2022-11-24T11:54:30.842Z,8.18
2022-11-24T11:59:59.141Z,7.45
2022-11-24T12:05:12.944Z,12.00
2022-11-24T12:10:31.674Z,4.68
2022-11-24T12:15:42.190Z,7.85
2022-11-24T12:20:58.785Z,7.15
2022-11-24T12:26:10.576Z,4.38
2022-11-24T12:31:22.536Z,6.05
2022-11-24T12:36:42.581Z,6.95
2022-11-24T12:42:00.881Z,29.45
2022-11-24T12:47:17.193Z,19.77
2022-11-24T12:52:27.440Z,10.45
2022-11-24T12:57:36.558Z,17.42
2022-11-24T13:03:01.861Z,16.30
2022-11-24T13:08:06.977Z,3.25
2022-11-24T13:13:12.642Z,18.08
2022-11-24T13:18:47.481Z,19.45
2022-11-24T13:23:58.536Z,9.88
2022-11-24T13:29:13.457Z,7.60
2022-11-24T13:35:03.804Z,6.07
2022-11-24T13:40:45.835Z,3.97
2022-11-24T13:45:55.370Z,5.25
2022-11-24T13:51:24.884Z,8.73
2022-11-24T13:56:32.360Z,4.47
2022-11-24T14:01:42.508Z,12.18
2022-11-24T14:06:54.921Z,8.27
2022-11-24T14:12:06.577Z,6.07
2022-11-24T14:17:22.960Z,6.40
2022-11-24T14:22:35.946Z,9.43
2022-11-24T14:27:40.686Z,6.72
2022-11-24T14:32:55.252Z,15.15
2022-11-24T14:38:04.397Z,15.00
2022-11-24T14:43:21.897Z,10.73
2022-11-24T14:48:28.994Z,6.95
2022-11-24T14:53:37.654Z,7.13
2022-11-24T14:58:42.662Z,7.63
2022-11-24T15:03:47.127Z,6.43
2022-11-24T15:08:53.696Z,4.72
2022-11-24T15:13:59.116Z,7.40
2022-11-24T15:19:04.002Z,8.68
2022-11-24T15:24:20.878Z,7.32
2022-11-24T15:29:25.017Z,6.22
2022-11-24T15:34:28.984Z,5.95
2022-11-24T15:39:34.847Z,3.65
2022-11-24T15:44:41.287Z,6.88
2022-11-24T15:49:46.590Z,4.80
2022-11-24T15:54:58.201Z,5.05
2022-11-24T16:00:02.802Z,8.30
2022-11-24T16:05:17.615Z,4.40
2022-11-24T16:10:28.453Z,6.30
2022-11-24T16:15:32.708Z,7.57
2022-11-24T16:20:37.778Z,26.00
2022-11-24T16:25:43.810Z,13.30
2022-11-24T16:30:50.728Z,13.95
2022-11-24T16:35:56.158Z,14.27
2022-11-24T16:41:03.541Z,6.25
2022-11-24T16:46:20.531Z,3.92
2022-11-24T16:51:29.946Z,7.25
2022-11-24T16:56:38.842Z,4.57
2022-11-24T17:01:46.525Z,6.15
2022-11-24T17:06:53.100Z,3.95
2022-11-24T17:11:58.527Z,5.20
2022-11-24T17:17:05.264Z,6.72
2022-11-24T17:22:09.458Z,8.32
2022-11-24T17:27:15.037Z,5.68
2022-11-24T17:32:19.370Z,7.75
2022-11-24T17:37:24.490Z,6.88
2022-11-24T17:42:30.285Z,12.95
2022-11-24T17:47:34.984Z,11.13
2022-11-24T17:52:38.977Z,10.45
2022-11-24T17:57:44.568Z,9.10
2022-11-24T18:02:48.864Z,6.25
2022-11-24T18:07:54.165Z,5.72
2022-11-24T18:13:00.118Z,6.55
2022-11-24T18:18:04.843Z,5.75
2022-11-24T18:23:09.414Z,7.82
2022-11-24T18:28:15.952Z,9.40
2022-11-24T18:33:21.880Z,7.40
2022-11-24T18:38:26.415Z,8.02
2022-11-24T18:43:32.594Z,6.88
2022-11-24T18:48:37.130Z,9.25
2022-11-24T18:53:42.530Z,7.63
2022-11-24T18:58:47.951Z,5.22
2022-11-24T19:03:54.356Z,7.72
2022-11-24T19:09:03.004Z,7.32
2022-11-24T19:14:13.115Z,7.10
2022-11-24T19:19:17.622Z,5.03
2022-11-24T19:24:25.737Z,7.82
2022-11-24T19:29:31.203Z,8.95
2022-11-24T19:34:35.421Z,6.05
2022-11-24T19:39:39.556Z,5.45
2022-11-24T19:44:45.066Z,5.85
2022-11-24T19:49:49.215Z,5.32
2022-11-24T19:54:53.226Z,5.68
2022-11-24T20:00:01.423Z,7.18
2022-11-24T20:05:10.607Z,4.00
2022-11-24T20:10:15.626Z,6.13
2022-11-24T20:15:21.216Z,6.22
2022-11-24T20:20:25.748Z,7.13
2022-11-24T20:25:29.780Z,5.43
2022-11-24T20:30:35.851Z,6.22
2022-11-24T20:35:41.142Z,12.45
2022-11-24T20:40:45.118Z,6.93
2022-11-24T20:45:50.627Z,4.97
2022-11-24T20:50:54.651Z,7.25
2022-11-24T20:56:05.889Z,5.22
2022-11-24T21:01:15.222Z,4.18
2022-11-24T21:06:19.267Z,4.97
2022-11-24T21:11:25.498Z,4.45
2022-11-24T21:16:32.938Z,5.32
2022-11-24T21:21:38.659Z,6.18
2022-11-24T21:26:44.367Z,4.43
2022-11-24T21:31:50.602Z,3.88
2022-11-24T21:36:54.654Z,3.05
2022-11-24T21:41:59.890Z,5.57
2022-11-24T21:47:05.380Z,3.03
2022-11-24T21:52:11.825Z,3.90
2022-11-24T21:57:15.762Z,3.72
2022-11-24T22:02:21.846Z,4.10
2022-11-24T22:07:25.944Z,5.57
2022-11-24T22:12:30.547Z,7.13
2022-11-24T22:17:37.981Z,4.25
2022-11-24T22:22:42.488Z,5.55
2022-11-24T22:27:46.469Z,7.30
2022-11-24T22:32:52.410Z,4.80
2022-11-24T22:37:57.872Z,4.32
2022-11-24T22:43:01.991Z,5.15
2022-11-24T22:48:08.022Z,4.28
2022-11-24T22:53:12.046Z,3.47
2022-11-24T22:58:16.328Z,6.20
2022-11-24T23:03:21.788Z,4.93
2022-11-24T23:08:26.077Z,4.00
2022-11-24T23:13:30.366Z,5.05
2022-11-24T23:18:36.718Z,3.28
2022-11-24T23:23:41.361Z,3.05
2022-11-24T23:28:46.718Z,4.78
2022-11-24T23:33:52.116Z,6.55
2022-11-24T23:38:57.657Z,4.03
2022-11-24T23:44:01.928Z,3.50
2022-11-24T23:49:07.447Z,4.32
2022-11-24T23:54:11.486Z,3.40
2022-11-24T23:59:17.361Z,9.10
